createdAt,value
2019-02-26T00:02:03.025Z,37.08
2019-02-26T00:04:35.027Z,30.37
2019-02-26T00:07:05.564Z,37.00
2019-02-26T00:09:36.015Z,34.38
2019-02-26T00:12:06.428Z,35.50
2019-02-26T00:14:36.891Z,31.40
2019-02-26T00:17:10.540Z,32.65
2019-02-26T00:19:39.379Z,35.43
2019-02-26T00:22:11.609Z,35.95
2019-02-26T00:24:42.697Z,35.38
2019-02-26T00:27:14.017Z,32.50
2019-02-26T00:29:46.274Z,37.15
2019-02-26T00:32:18.384Z,35.48
2019-02-26T00:34:48.591Z,37.42
2019-02-26T00:37:20.074Z,44.75
2019-02-26T00:39:51.769Z,39.78
2019-02-26T00:42:24.259Z,45.25
2019-02-26T00:44:57.615Z,42.70
2019-02-26T00:47:29.891Z,41.18
2019-02-26T00:50:00.595Z,42.73
2019-02-26T00:52:32.625Z,39.60
2019-02-26T00:55:04.944Z,37.95
2019-02-26T00:57:36.452Z,37.85
2019-02-26T01:00:16.641Z,40.67
2019-02-26T01:02:47.028Z,38.80
2019-02-26T01:05:17.739Z,39.03
2019-02-26T01:07:50.259Z,36.83
2019-02-26T01:10:21.222Z,39.75
2019-02-26T01:12:52.369Z,39.40
2019-02-26T01:15:23.183Z,38.38
2019-02-26T01:17:55.002Z,45.05
2019-02-26T01:20:27.499Z,39.78
2019-02-26T01:22:57.751Z,42.05
2019-02-26T01:25:28.125Z,37.10
2019-02-26T01:28:00.273Z,39.00
2019-02-26T01:30:33.150Z,37.33
2019-02-26T01:33:05.011Z,37.23
2019-02-26T01:35:35.654Z,41.85
2019-02-26T01:38:07.099Z,37.98
2019-02-26T01:40:41.512Z,43.45
2019-02-26T01:43:10.027Z,43.55
2019-02-26T01:45:41.779Z,38.67
2019-02-26T01:48:16.707Z,40.25
2019-02-26T01:50:46.547Z,38.85
2019-02-26T01:53:19.149Z,38.78
2019-02-26T01:55:50.509Z,43.33
2019-02-26T01:58:36.077Z,41.05
2019-02-26T02:01:09.949Z,40.00
2019-02-26T02:03:39.968Z,41.75
2019-02-26T02:06:11.774Z,40.43
2019-02-26T02:08:45.415Z,41.15
2019-02-26T02:11:14.502Z,45.38
2019-02-26T02:13:44.893Z,44.20
2019-02-26T02:16:15.273Z,41.25
2019-02-26T02:18:48.150Z,43.50
2019-02-26T02:21:17.736Z,45.20
2019-02-26T02:23:49.216Z,42.25
2019-02-26T02:26:20.242Z,44.30
2019-02-26T02:28:51.607Z,43.33
2019-02-26T02:31:24.440Z,41.08
2019-02-26T02:33:54.072Z,39.15
2019-02-26T02:36:26.540Z,45.60
2019-02-26T02:38:56.553Z,44.33
2019-02-26T02:41:26.936Z,43.85
2019-02-26T02:43:57.413Z,45.05
2019-02-26T02:46:27.787Z,44.93
2019-02-26T02:48:58.171Z,41.88
2019-02-26T02:51:31.186Z,43.20
2019-02-26T02:54:00.646Z,47.05
2019-02-26T02:56:33.220Z,45.15
2019-02-26T02:59:05.411Z,46.90
2019-02-26T03:01:35.204Z,44.88
2019-02-26T03:04:05.592Z,51.60
2019-02-26T03:06:38.621Z,44.67
2019-02-26T03:09:15.282Z,45.25
2019-02-26T03:11:49.654Z,45.92
2019-02-26T03:14:19.497Z,46.02
2019-02-26T03:16:51.393Z,44.33
2019-02-26T03:19:21.969Z,54.93
2019-02-26T03:21:53.197Z,46.75
2019-02-26T03:24:28.407Z,47.62
2019-02-26T03:26:57.662Z,45.98
2019-02-26T03:29:28.049Z,48.38
2019-02-26T03:31:58.433Z,46.37
2019-02-26T03:34:28.835Z,47.83
2019-02-26T03:36:59.953Z,47.90
2019-02-26T03:39:31.293Z,46.20
2019-02-26T03:42:02.023Z,48.58
2019-02-26T03:44:32.412Z,47.43
2019-02-26T03:47:02.801Z,48.55
2019-02-26T03:49:33.190Z,48.95
2019-02-26T03:52:03.569Z,48.68
2019-02-26T03:54:37.264Z,53.70
2019-02-26T03:57:06.083Z,50.80
2019-02-26T03:59:36.474Z,51.53
2019-02-26T04:02:07.297Z,54.03
2019-02-26T04:04:40.612Z,49.80
2019-02-26T04:07:10.991Z,54.67
2019-02-26T04:09:42.259Z,45.30
2019-02-26T04:12:15.338Z,55.90
2019-02-26T04:14:45.592Z,55.05
2019-02-26T04:17:15.980Z,51.83
2019-02-26T04:19:46.659Z,51.95
2019-02-26T04:22:31.640Z,52.38
2019-02-26T04:25:11.857Z,51.77
2019-02-26T04:28:32.827Z,54.88
2019-02-26T04:31:21.846Z,53.17
2019-02-26T04:34:05.303Z,52.20
2019-02-26T04:36:59.577Z,51.10
2019-02-26T04:39:45.045Z,52.08
2019-02-26T04:42:37.722Z,51.20
2019-02-26T04:45:21.237Z,51.92
2019-02-26T04:48:01.494Z,55.63
2019-02-26T04:50:35.327Z,52.62
2019-02-26T04:53:05.903Z,58.70
2019-02-26T04:55:41.542Z,57.10
2019-02-26T04:58:14.798Z,56.08
2019-02-26T05:00:44.285Z,55.35
2019-02-26T05:03:17.178Z,53.58
2019-02-26T05:05:51.427Z,57.23
2019-02-26T05:08:19.820Z,57.95
2019-02-26T05:10:52.459Z,58.58
2019-02-26T05:13:24.708Z,58.60
2019-02-26T05:15:54.342Z,59.45
2019-02-26T05:18:25.967Z,61.73
2019-02-26T05:20:56.774Z,60.73
2019-02-26T05:23:30.421Z,61.40
2019-02-26T05:26:02.869Z,62.25
2019-02-26T05:28:35.357Z,62.05
2019-02-26T05:31:04.475Z,61.48
2019-02-26T05:33:35.408Z,64.42
2019-02-26T05:36:06.785Z,63.00
2019-02-26T05:38:37.845Z,58.68
2019-02-26T05:41:08.229Z,64.25
2019-02-26T05:43:38.582Z,68.05
2019-02-26T05:46:08.955Z,60.33
2019-02-26T05:48:39.961Z,60.65
2019-02-26T05:51:11.603Z,61.10
2019-02-26T05:53:42.037Z,60.98
2019-02-26T05:56:14.544Z,63.63
2019-02-26T05:58:46.960Z,65.50
2019-02-26T06:01:19.355Z,60.60
2019-02-26T06:03:49.824Z,61.90
2019-02-26T06:06:21.465Z,61.25
2019-02-26T06:08:51.828Z,65.32
2019-02-26T06:11:22.220Z,65.65
2019-02-26T06:13:52.584Z,65.67
2019-02-26T06:16:24.465Z,63.08
2019-02-26T06:18:55.043Z,65.57
2019-02-26T06:21:26.092Z,67.72
2019-02-26T06:23:56.753Z,66.77
2019-02-26T06:26:30.373Z,67.50
2019-02-26T06:28:59.208Z,67.47
2019-02-26T06:31:29.582Z,61.65
2019-02-26T06:34:03.510Z,64.15
2019-02-26T06:36:32.029Z,68.02
2019-02-26T06:39:04.183Z,63.48
2019-02-26T06:41:35.627Z,70.62
2019-02-26T06:44:05.988Z,67.00
2019-02-26T06:46:38.306Z,65.35
2019-02-26T06:49:08.456Z,65.40
2019-02-26T06:51:38.842Z,63.15
2019-02-26T06:54:09.210Z,63.73
2019-02-26T06:56:43.702Z,63.92
2019-02-26T06:59:12.262Z,66.10
2019-02-26T07:01:42.807Z,66.33
2019-02-26T07:04:13.189Z,63.52
2019-02-26T07:06:43.724Z,64.70
2019-02-26T07:09:16.454Z,68.50
2019-02-26T07:11:46.155Z,68.87
2019-02-26T07:14:16.527Z,65.35
2019-02-26T07:16:46.881Z,64.62
2019-02-26T07:19:18.223Z,63.75
2019-02-26T07:21:50.447Z,65.17
2019-02-26T07:24:23.026Z,67.85
2019-02-26T07:26:53.739Z,65.92
2019-02-26T07:29:24.118Z,65.42
2019-02-26T07:31:56.563Z,66.92
2019-02-26T07:34:27.370Z,63.42
2019-02-26T07:36:57.807Z,64.85
2019-02-26T07:39:28.172Z,66.02
2019-02-26T07:41:58.538Z,69.05
2019-02-26T07:44:28.901Z,67.00
2019-02-26T07:47:00.963Z,63.10
2019-02-26T07:49:31.346Z,60.70
2019-02-26T07:52:05.481Z,61.95
2019-02-26T07:54:47.567Z,64.97
2019-02-26T07:57:20.569Z,60.50
2019-02-26T07:59:50.345Z,60.83
2019-02-26T08:02:20.754Z,62.27
2019-02-26T08:04:51.101Z,62.40
2019-02-26T08:07:23.918Z,61.13
2019-02-26T08:09:53.539Z,64.37
2019-02-26T08:12:23.899Z,61.30
2019-02-26T08:14:54.268Z,65.05
2019-02-26T08:17:24.658Z,64.00
2019-02-26T08:20:10.525Z,64.70
2019-02-26T08:22:40.472Z,66.82
2019-02-26T08:25:12.552Z,69.22
2019-02-26T08:27:42.909Z,63.13
2019-02-26T08:30:18.811Z,65.45
2019-02-26T08:32:51.084Z,67.42
2019-02-26T08:35:20.232Z,61.42
2019-02-26T08:37:50.594Z,67.85
2019-02-26T08:40:20.964Z,65.80
2019-02-26T08:42:51.325Z,67.37
2019-02-26T08:45:23.562Z,69.20
2019-02-26T08:47:54.212Z,62.53
2019-02-26T08:50:28.501Z,64.70
2019-02-26T08:52:58.524Z,65.28
2019-02-26T08:55:28.748Z,65.05
2019-02-26T08:57:59.118Z,61.73
2019-02-26T09:00:29.505Z,63.63
2019-02-26T09:02:59.881Z,60.85
2019-02-26T09:05:32.227Z,64.67
2019-02-26T09:08:02.348Z,63.23
2019-02-26T09:10:32.735Z,63.20
2019-02-26T09:13:03.105Z,58.65
2019-02-26T09:15:35.915Z,55.38
2019-02-26T09:18:05.850Z,60.73
2019-02-26T09:20:48.059Z,57.88
2019-02-26T09:23:20.814Z,59.05
2019-02-26T09:25:54.167Z,57.43
2019-02-26T09:28:24.748Z,58.15
2019-02-26T09:31:00.945Z,60.50
2019-02-26T09:33:32.572Z,62.03
2019-02-26T09:36:05.214Z,66.57
2019-02-26T09:38:35.586Z,67.53
2019-02-26T09:41:05.965Z,69.25
2019-02-26T09:43:38.641Z,67.40
2019-02-26T09:46:10.141Z,72.58
2019-02-26T09:48:42.921Z,73.15
2019-02-26T09:51:14.805Z,71.35
2019-02-26T09:53:47.245Z,71.40
2019-02-26T09:56:18.130Z,74.42
2019-02-26T09:58:50.692Z,70.57
2019-02-26T10:01:20.695Z,74.60
2019-02-26T10:03:51.050Z,75.67
2019-02-26T10:06:23.484Z,75.92
2019-02-26T10:08:56.091Z,75.15
2019-02-26T10:11:27.883Z,78.92
2019-02-26T10:13:57.675Z,81.50
2019-02-26T10:16:28.705Z,76.80
2019-02-26T10:19:00.595Z,82.70
2019-02-26T10:21:32.959Z,82.45
2019-02-26T10:24:04.618Z,76.77
2019-02-26T10:26:36.575Z,82.35
2019-02-26T10:29:08.027Z,82.80
2019-02-26T10:31:41.261Z,79.22
2019-02-26T10:34:13.354Z,80.25
2019-02-26T10:36:46.579Z,85.17
2019-02-26T10:39:18.117Z,80.25
2019-02-26T10:41:48.218Z,97.27
2019-02-26T10:44:19.801Z,81.35
2019-02-26T10:46:53.507Z,84.13
2019-02-26T10:49:23.882Z,85.40
2019-02-26T10:51:55.588Z,82.47
2019-02-26T10:54:31.486Z,84.83
2019-02-26T10:57:14.478Z,79.80
2019-02-26T10:59:45.413Z,81.12
2019-02-26T11:02:20.754Z,78.62
2019-02-26T11:04:55.408Z,81.75
2019-02-26T11:07:31.731Z,80.75
2019-02-26T11:10:01.411Z,81.15
2019-02-26T11:12:34.060Z,82.67
2019-02-26T11:15:06.801Z,80.72
2019-02-26T11:17:38.390Z,78.90
2019-02-26T11:20:27.710Z,83.00
2019-02-26T11:23:00.051Z,78.37
2019-02-26T11:25:30.461Z,81.63
2019-02-26T11:28:02.505Z,78.07
2019-02-26T11:30:54.805Z,84.50
2019-02-26T11:33:24.388Z,82.40
2019-02-26T11:35:54.807Z,79.97
2019-02-26T11:38:26.256Z,76.57
2019-02-26T11:40:56.627Z,81.67
2019-02-26T11:43:28.931Z,81.32
2019-02-26T11:46:01.381Z,81.15
2019-02-26T11:48:33.177Z,77.85
2019-02-26T11:51:03.236Z,73.07
2019-02-26T11:53:33.614Z,77.42
2019-02-26T11:56:04.100Z,82.08
2019-02-26T11:58:34.479Z,85.95
2019-02-26T12:01:05.995Z,82.00
2019-02-26T12:03:38.929Z,81.12
2019-02-26T12:06:08.452Z,81.17
2019-02-26T12:08:40.573Z,79.25
2019-02-26T12:11:16.525Z,76.50
2019-02-26T12:13:44.713Z,77.62
2019-02-26T12:16:15.117Z,75.97
2019-02-26T12:18:48.440Z,80.03
2019-02-26T12:21:25.697Z,81.20
2019-02-26T12:24:00.574Z,78.92
2019-02-26T12:26:30.322Z,80.97
2019-02-26T12:29:02.155Z,80.85
2019-02-26T12:31:34.507Z,83.17
2019-02-26T12:34:04.975Z,76.62
2019-02-26T12:36:35.565Z,80.45
2019-02-26T12:39:30.667Z,80.22
2019-02-26T12:41:58.958Z,78.95
2019-02-26T12:44:31.750Z,85.57
2019-02-26T12:47:01.405Z,86.82
2019-02-26T12:49:33.298Z,82.50
2019-02-26T12:52:03.863Z,81.12
2019-02-26T12:54:37.194Z,81.82
2019-02-26T12:57:06.347Z,78.97
2019-02-26T12:59:36.720Z,73.42
2019-02-26T13:02:10.085Z,78.70
2019-02-26T13:04:41.073Z,77.03
2019-02-26T13:07:11.437Z,72.67
2019-02-26T13:09:50.420Z,73.00
2019-02-26T13:12:17.157Z,69.72
2019-02-26T13:14:47.437Z,69.70
2019-02-26T13:17:20.723Z,74.22
2019-02-26T13:19:57.643Z,73.17
2019-02-26T13:22:23.172Z,72.45
2019-02-26T13:24:53.549Z,68.47
2019-02-26T13:27:23.939Z,74.00
2019-02-26T13:29:57.028Z,71.40
2019-02-26T13:32:32.184Z,69.15
2019-02-26T13:35:00.799Z,70.25
2019-02-26T13:37:34.739Z,68.17
2019-02-26T13:40:03.210Z,63.75
2019-02-26T13:42:33.666Z,68.85
2019-02-26T13:45:06.852Z,70.72
2019-02-26T13:47:37.419Z,72.37
2019-02-26T13:50:12.416Z,72.03
2019-02-26T13:52:42.836Z,66.55
2019-02-26T13:55:13.480Z,77.25
2019-02-26T13:57:43.875Z,71.20
2019-02-26T14:00:25.991Z,65.97
2019-02-26T14:02:50.676Z,70.95
2019-02-26T14:05:22.755Z,67.20
2019-02-26T14:07:53.205Z,72.37
2019-02-26T14:10:28.668Z,68.75
2019-02-26T14:12:59.074Z,69.50
2019-02-26T14:15:31.048Z,70.62
2019-02-26T14:18:01.428Z,65.90
2019-02-26T14:20:32.777Z,72.10
2019-02-26T14:23:03.187Z,75.70
2019-02-26T14:25:33.543Z,77.37
2019-02-26T14:28:04.200Z,74.37
2019-02-26T14:30:34.569Z,72.25
2019-02-26T14:33:04.981Z,69.12
2019-02-26T14:35:35.353Z,74.37
2019-02-26T14:38:18.202Z,77.15
2019-02-26T14:40:48.577Z,74.53
2019-02-26T14:43:19.105Z,71.30
2019-02-26T14:45:49.477Z,74.15
2019-02-26T14:48:20.105Z,70.83
2019-02-26T14:50:50.482Z,75.40
2019-02-26T14:53:20.886Z,67.25
2019-02-26T14:55:53.073Z,76.22
2019-02-26T14:58:23.440Z,72.05
2019-02-26T15:00:57.722Z,69.92
2019-02-26T15:03:26.857Z,72.82
2019-02-26T15:05:58.607Z,71.45
2019-02-26T15:08:29.415Z,66.60
2019-02-26T15:10:59.951Z,65.78
2019-02-26T15:13:30.640Z,68.02
2019-02-26T15:16:04.540Z,66.47
2019-02-26T15:18:35.847Z,72.35
2019-02-26T15:21:06.311Z,71.35
2019-02-26T15:23:36.793Z,70.67
2019-02-26T15:26:07.180Z,71.40
2019-02-26T15:28:38.619Z,71.37
2019-02-26T15:31:09.032Z,69.60
2019-02-26T15:33:40.477Z,73.12
2019-02-26T15:36:10.886Z,74.20
2019-02-26T15:38:41.237Z,70.30
2019-02-26T15:41:11.990Z,76.60
2019-02-26T15:43:42.359Z,70.17
2019-02-26T15:46:12.738Z,75.28
2019-02-26T15:48:43.110Z,77.37
2019-02-26T15:51:14.654Z,70.65
2019-02-26T15:53:45.849Z,72.82
2019-02-26T15:56:17.374Z,90.90
2019-02-26T15:58:47.750Z,86.63
2019-02-26T16:01:18.131Z,83.85
2019-02-26T16:03:48.525Z,83.30
2019-02-26T16:06:38.226Z,77.40
2019-02-26T16:09:09.867Z,79.10
2019-02-26T16:11:40.403Z,75.17
2019-02-26T16:14:10.973Z,77.00
2019-02-26T16:16:42.327Z,76.55
2019-02-26T16:19:12.796Z,79.03
2019-02-26T16:21:43.176Z,79.67
2019-02-26T16:24:13.554Z,79.42
2019-02-26T16:26:43.939Z,80.70
2019-02-26T16:29:14.311Z,83.70
2019-02-26T16:31:44.699Z,79.95
2019-02-26T16:34:15.145Z,79.35
2019-02-26T16:36:45.532Z,76.10
2019-02-26T16:39:15.909Z,79.03
2019-02-26T16:41:46.299Z,79.07
2019-02-26T16:44:16.850Z,82.60
2019-02-26T16:46:47.229Z,86.35
2019-02-26T16:49:17.599Z,86.42
2019-02-26T16:51:47.990Z,80.38
2019-02-26T16:54:18.346Z,85.42
2019-02-26T16:56:48.726Z,88.05
2019-02-26T16:59:19.103Z,85.07
2019-02-26T17:01:49.468Z,89.80
2019-02-26T17:04:19.843Z,96.08
2019-02-26T17:06:51.570Z,96.30
2019-02-26T17:09:22.567Z,95.87
2019-02-26T17:11:52.941Z,89.83
2019-02-26T17:14:23.307Z,88.87
2019-02-26T17:16:53.680Z,88.03
2019-02-26T17:19:24.040Z,88.03
2019-02-26T17:21:54.413Z,92.22
2019-02-26T17:24:24.786Z,92.45
2019-02-26T17:26:55.281Z,88.35
2019-02-26T17:29:25.814Z,95.53
2019-02-26T17:31:59.049Z,88.37
2019-02-26T17:34:29.404Z,99.83
2019-02-26T17:36:59.828Z,98.72
2019-02-26T17:39:30.199Z,90.72
2019-02-26T17:42:01.525Z,93.33
2019-02-26T17:44:31.957Z,93.37
2019-02-26T17:47:02.416Z,89.83
2019-02-26T17:49:33.669Z,90.25
2019-02-26T17:52:06.479Z,95.20
2019-02-26T17:54:37.432Z,93.17
2019-02-26T17:57:07.928Z,98.47
2019-02-26T17:59:38.295Z,92.22
2019-02-26T18:02:08.679Z,101.87
2019-02-26T18:04:39.044Z,89.58
2019-02-26T18:07:09.484Z,94.50
2019-02-26T18:09:41.151Z,96.53
2019-02-26T18:12:11.519Z,96.32
2019-02-26T18:14:41.892Z,99.87
2019-02-26T18:17:12.345Z,93.10
2019-02-26T18:19:42.701Z,102.78
2019-02-26T18:22:13.070Z,102.25
2019-02-26T18:24:43.472Z,99.90
2019-02-26T18:27:13.844Z,98.45
2019-02-26T18:29:44.220Z,104.17
2019-02-26T18:32:14.593Z,106.45
2019-02-26T18:34:45.042Z,109.32
2019-02-26T18:37:17.712Z,111.10
2019-02-26T18:40:14.038Z,106.75
2019-02-26T18:42:46.209Z,111.57
2019-02-26T18:45:29.228Z,115.10
2019-02-26T18:47:59.718Z,112.55
2019-02-26T18:50:31.249Z,113.25
2019-02-26T18:53:01.669Z,112.85
2019-02-26T18:55:32.672Z,114.12
2019-02-26T18:58:03.554Z,145.92
2019-02-26T19:00:35.665Z,128.95
2019-02-26T19:03:08.862Z,120.35
2019-02-26T19:05:38.679Z,125.22
2019-02-26T19:08:09.137Z,118.77
2019-02-26T19:10:39.594Z,120.65
2019-02-26T19:13:10.045Z,108.17
2019-02-26T19:15:40.405Z,118.70
2019-02-26T19:18:11.078Z,123.13
2019-02-26T19:20:41.941Z,120.45
2019-02-26T19:23:13.755Z,112.97
2019-02-26T19:25:44.118Z,119.45
2019-02-26T19:28:14.538Z,124.30
2019-02-26T19:30:44.899Z,114.60
2019-02-26T19:33:15.661Z,125.35
2019-02-26T19:35:46.022Z,117.95
2019-02-26T19:38:16.403Z,114.80
2019-02-26T19:41:12.634Z,122.35
2019-02-26T19:43:43.588Z,119.13
2019-02-26T19:46:16.900Z,121.35
2019-02-26T19:48:46.023Z,120.82
2019-02-26T19:51:16.443Z,125.40
2019-02-26T19:53:46.862Z,119.37
2019-02-26T19:56:17.226Z,115.92
2019-02-26T19:58:47.601Z,130.67
2019-02-26T20:01:17.967Z,128.07
2019-02-26T20:03:48.344Z,118.45
2019-02-26T20:06:18.825Z,125.02
2019-02-26T20:09:08.940Z,136.12
2019-02-26T20:11:39.577Z,127.17
2019-02-26T20:14:11.941Z,125.27
2019-02-26T20:16:44.235Z,121.50
2019-02-26T20:19:14.333Z,126.95
2019-02-26T20:21:44.700Z,129.20
2019-02-26T20:24:16.598Z,125.50
2019-02-26T20:26:59.481Z,132.25
2019-02-26T20:29:29.851Z,138.65
2019-02-26T20:32:00.230Z,124.78
2019-02-26T20:34:30.595Z,127.90
2019-02-26T20:37:01.244Z,143.13
2019-02-26T20:39:31.609Z,138.62
2019-02-26T20:42:01.989Z,135.28
2019-02-26T20:44:32.353Z,139.25
2019-02-26T20:47:02.730Z,145.35
2019-02-26T20:49:33.098Z,140.80
2019-02-26T20:52:04.544Z,134.82
2019-02-26T20:54:34.905Z,132.03
2019-02-26T20:57:05.292Z,138.97
2019-02-26T20:59:35.663Z,127.65
2019-02-26T21:02:06.306Z,134.57
2019-02-26T21:04:36.676Z,139.20
2019-02-26T21:07:07.051Z,141.32
2019-02-26T21:09:37.816Z,138.12
2019-02-26T21:12:09.493Z,129.30
2019-02-26T21:14:41.453Z,138.40
2019-02-26T21:17:11.936Z,142.32
2019-02-26T21:19:42.304Z,147.55
2019-02-26T21:22:12.689Z,143.17
2019-02-26T21:24:43.057Z,133.78
2019-02-26T21:27:13.447Z,131.20
2019-02-26T21:29:43.813Z,137.70
2019-02-26T21:32:14.204Z,136.32
2019-02-26T21:34:47.589Z,145.12
2019-02-26T21:37:17.710Z,142.05
2019-02-26T21:39:48.077Z,149.95
2019-02-26T21:42:18.497Z,138.10
2019-02-26T21:44:48.862Z,153.05
2019-02-26T21:47:20.303Z,140.52
2019-02-26T21:49:50.721Z,135.45
2019-02-26T21:52:21.113Z,146.70
2019-02-26T21:54:51.485Z,145.35
2019-02-26T21:57:22.246Z,150.35
2019-02-26T21:59:52.640Z,144.10
2019-02-26T22:02:23.030Z,144.47
2019-02-26T22:04:53.416Z,139.92
2019-02-26T22:07:24.386Z,137.18
2019-02-26T22:09:54.734Z,141.05
2019-02-26T22:12:37.466Z,139.88
2019-02-26T22:15:11.789Z,159.22
2019-02-26T22:17:42.162Z,138.65
2019-02-26T22:20:26.751Z,145.82
2019-02-26T22:22:50.283Z,149.45
2019-02-26T22:25:20.728Z,143.62
2019-02-26T22:27:51.100Z,149.45
2019-02-26T22:30:22.827Z,142.72
2019-02-26T22:32:53.245Z,139.07
2019-02-26T22:35:25.878Z,156.22
2019-02-26T22:37:55.694Z,143.57
2019-02-26T22:40:28.908Z,145.65
2019-02-26T22:42:58.698Z,142.57
2019-02-26T22:45:29.082Z,146.32
2019-02-26T22:47:59.450Z,147.62
2019-02-26T22:50:29.835Z,139.80
2019-02-26T22:53:03.787Z,153.07
2019-02-26T22:55:32.283Z,151.50
2019-02-26T22:58:03.727Z,143.35
2019-02-26T23:00:59.004Z,144.10
2019-02-26T23:03:31.060Z,145.45
2019-02-26T23:06:01.619Z,139.95
2019-02-26T23:08:32.158Z,136.82
2019-02-26T23:11:03.189Z,133.70
2019-02-26T23:13:34.239Z,139.00
2019-02-26T23:16:05.231Z,146.85
2019-02-26T23:18:36.805Z,133.65
2019-02-26T23:21:09.307Z,143.78
2019-02-26T23:23:40.054Z,153.93
2019-02-26T23:26:10.883Z,157.15
2019-02-26T23:28:42.418Z,139.68
2019-02-26T23:31:13.416Z,144.43
2019-02-26T23:33:48.184Z,144.05
2019-02-26T23:36:15.869Z,137.77
2019-02-26T23:38:46.233Z,152.10
2019-02-26T23:41:16.621Z,151.20
2019-02-26T23:43:46.991Z,156.18
2019-02-26T23:46:17.378Z,148.70
2019-02-26T23:48:47.746Z,161.47
2019-02-26T23:51:21.172Z,142.53
2019-02-26T23:53:50.204Z,132.82
2019-02-26T23:56:20.657Z,136.18
2019-02-26T23:58:51.021Z,125.70
